THY9Z EVRA-OEJN
Flight info
| Callsign | THY9Z |
|---|---|
| Flight time | 5h 4m |
| Altitude | 37000 |
| Route | BERIL DCT UBORU DCT BOKSU/N0483F380 DCT TOXAR DCT ROBTU/N0485F370 DCT KENIN DCT LARMU DCT RUTUV DCT RONBU/N0477F390 DCT BUVAK DCT RIXEN DCT LTFM DCT RATVU UT35 AYT UM855 TOMBI M855 RASDA A16 CVO A727 NABED T55 DEDLI M999 MUVOL |
| Aircraft | A35K/H-SDE2E3GHIJ3J4J5LM1ORWXY/LB1D1 |
Departure
| Time | 2026-05-07 18:34 |
|---|---|
| Airport | Riga International Airport (EVRA) |
Arrival
| Time | 2026-05-07 23:38 |
|---|---|
| Airport | King Abdulaziz International Airport (OEJN) |
| Time | Latitude | Longitude | Altitude | Speed | Heading |
|---|---|---|---|---|---|
| 2026-05-07 17:42 | 56.92027 | 23.97641 | 50 ft | 0 kts | 184° |
| 2026-05-07 18:25 | 56.92021 | 23.97641 | 50 ft | 2 kts | 184° |
| 2026-05-07 18:25 | 56.92010 | 23.97639 | 50 ft | 3 kts | 184° |
| 2026-05-07 18:25 | 56.91973 | 23.97612 | 50 ft | 5 kts | 229° |
| 2026-05-07 18:26 | 56.91968 | 23.97574 | 42 ft | 5 kts | 262° |
| 2026-05-07 18:26 | 56.91963 | 23.97493 | 49 ft | 7 kts | 253° |
| 2026-05-07 18:26 | 56.91922 | 23.97440 | 50 ft | 8 kts | 197° |
| 2026-05-07 18:26 | 56.91858 | 23.97425 | 50 ft | 10 kts | 186° |
| 2026-05-07 18:27 | 56.91777 | 23.97412 | 50 ft | 13 kts | 184° |
| 2026-05-07 18:27 | 56.91682 | 23.97399 | 50 ft | 15 kts | 184° |
| 2026-05-07 18:27 | 56.91573 | 23.97385 | 50 ft | 17 kts | 184° |
| 2026-05-07 18:27 | 56.91452 | 23.97359 | 51 ft | 18 kts | 186° |
| 2026-05-07 18:28 | 56.91319 | 23.97337 | 51 ft | 20 kts | 185° |
| 2026-05-07 18:28 | 56.91194 | 23.97317 | 51 ft | 17 kts | 185° |
| 2026-05-07 18:28 | 56.91067 | 23.97295 | 51 ft | 19 kts | 186° |
| 2026-05-07 18:28 | 56.90929 | 23.97271 | 51 ft | 21 kts | 185° |
| 2026-05-07 18:29 | 56.90821 | 23.97254 | 52 ft | 13 kts | 185° |
| 2026-05-07 18:29 | 56.90731 | 23.97208 | 52 ft | 14 kts | 212° |
| 2026-05-07 18:29 | 56.90669 | 23.97090 | 50 ft | 0 kts | 233° |
| 2026-05-07 18:29 | 56.90669 | 23.97089 | 50 ft | 0 kts | 233° |
| 2026-05-07 18:30 | 56.90668 | 23.97087 | 50 ft | 1 kts | 233° |
| 2026-05-07 18:31 | 56.90660 | 23.97066 | 52 ft | 3 kts | 239° |
| 2026-05-07 18:31 | 56.90651 | 23.97012 | 52 ft | 6 kts | 261° |
| 2026-05-07 18:31 | 56.90652 | 23.96922 | 51 ft | 9 kts | 274° |
| 2026-05-07 18:31 | 56.90670 | 23.96857 | 51 ft | 4 kts | 342° |
| 2026-05-07 18:32 | 56.90708 | 23.96846 | 51 ft | 7 kts | 356° |
| 2026-05-07 18:32 | 56.90768 | 23.96850 | 50 ft | 9 kts | 4° |
| 2026-05-07 18:32 | 56.90778 | 23.96852 | 50 ft | 2 kts | 4° |
| 2026-05-07 18:32 | 56.90800 | 23.96855 | 49 ft | 5 kts | 4° |
| 2026-05-07 18:33 | 56.90807 | 23.96856 | 49 ft | 0 kts | 4° |
| 2026-05-07 18:33 | 56.90860 | 23.96864 | 50 ft | 33 kts | 5° |
| 2026-05-07 18:33 | 56.91338 | 23.96940 | 52 ft | 104 kts | 4° |
| 2026-05-07 18:33 | 56.92272 | 23.97095 | 53 ft | 164 kts | 4° |
| 2026-05-07 18:34 | 56.93524 | 23.97257 | 392 ft | 192 kts | 359° |
| 2026-05-07 18:34 | 56.94960 | 23.97312 | 800 ft | 224 kts | 1° |
| 2026-05-07 18:34 | 56.96680 | 23.97499 | 877 ft | 272 kts | 3° |
| 2026-05-07 18:34 | 56.98765 | 23.97813 | 664 ft | 328 kts | 4° |
| 2026-05-07 18:35 | 57.01072 | 23.98224 | 1974 ft | 300 kts | 5° |
| 2026-05-07 18:35 | 57.03087 | 23.98492 | 4492 ft | 269 kts | 3° |
| 2026-05-07 18:35 | 57.04823 | 23.98587 | 6662 ft | 231 kts | 360° |
| 2026-05-07 18:35 | 57.06289 | 23.98513 | 8161 ft | 194 kts | 349° |
| 2026-05-07 18:36 | 57.07380 | 23.97347 | 8994 ft | 182 kts | 309° |
| 2026-05-07 18:36 | 57.08019 | 23.95234 | 9259 ft | 199 kts | 293° |
| 2026-05-07 18:36 | 57.08566 | 23.92794 | 9555 ft | 211 kts | 292° |
| 2026-05-07 18:36 | 57.09154 | 23.90255 | 9979 ft | 219 kts | 293° |
| 2026-05-07 18:37 | 57.09786 | 23.87654 | 10351 ft | 227 kts | 294° |
| 2026-05-07 18:37 | 57.10457 | 23.84955 | 10714 ft | 236 kts | 293° |
| 2026-05-07 18:37 | 57.10991 | 23.82033 | 11054 ft | 248 kts | 278° |
| 2026-05-07 18:37 | 57.10890 | 23.78816 | 11487 ft | 258 kts | 257° |
| 2026-05-07 18:38 | 57.10406 | 23.75605 | 11917 ft | 268 kts | 253° |
| 2026-05-07 18:38 | 57.09858 | 23.72260 | 12356 ft | 277 kts | 253° |
| 2026-05-07 18:38 | 57.09285 | 23.68805 | 12829 ft | 287 kts | 251° |
| 2026-05-07 18:38 | 57.08393 | 23.65445 | 13217 ft | 300 kts | 234° |
| 2026-05-07 18:39 | 57.06891 | 23.62657 | 13564 ft | 315 kts | 220° |
| 2026-05-07 18:39 | 57.05137 | 23.60108 | 13854 ft | 328 kts | 218° |
| 2026-05-07 18:39 | 57.03294 | 23.57493 | 14142 ft | 340 kts | 219° |
| 2026-05-07 18:39 | 57.01400 | 23.54776 | 14421 ft | 351 kts | 219° |
| 2026-05-07 18:40 | 56.99482 | 23.51997 | 14692 ft | 361 kts | 219° |
| 2026-05-07 18:40 | 56.97475 | 23.49145 | 15015 ft | 369 kts | 218° |
| 2026-05-07 18:40 | 56.95419 | 23.46262 | 15436 ft | 373 kts | 218° |
| 2026-05-07 18:40 | 56.93347 | 23.43360 | 15901 ft | 376 kts | 218° |
| 2026-05-07 18:41 | 56.91253 | 23.40430 | 16403 ft | 379 kts | 219° |
| 2026-05-07 18:41 | 56.89152 | 23.37494 | 16902 ft | 381 kts | 219° |
| 2026-05-07 18:41 | 56.87036 | 23.34539 | 17413 ft | 382 kts | 218° |
| 2026-05-07 18:41 | 56.84945 | 23.31624 | 17908 ft | 384 kts | 218° |
| 2026-05-07 18:42 | 56.82810 | 23.28652 | 18396 ft | 386 kts | 218° |
| 2026-05-07 18:42 | 56.80640 | 23.25744 | 18796 ft | 390 kts | 215° |
| 2026-05-07 18:42 | 56.78208 | 23.23520 | 19210 ft | 397 kts | 200° |
| 2026-05-07 18:42 | 56.75465 | 23.22632 | 19607 ft | 406 kts | 184° |
| 2026-05-07 18:43 | 56.72619 | 23.22832 | 19984 ft | 411 kts | 179° |
| 2026-05-07 18:43 | 56.69760 | 23.23215 | 20380 ft | 413 kts | 178° |
| 2026-05-07 18:43 | 56.66901 | 23.23583 | 20793 ft | 414 kts | 179° |
| 2026-05-07 18:43 | 56.64014 | 23.23935 | 21205 ft | 415 kts | 179° |
| 2026-05-07 18:44 | 56.61121 | 23.24277 | 21590 ft | 417 kts | 179° |
| 2026-05-07 18:44 | 56.58197 | 23.24616 | 22002 ft | 419 kts | 179° |
| 2026-05-07 18:44 | 56.55291 | 23.24984 | 22420 ft | 421 kts | 177° |
| 2026-05-07 18:44 | 56.52427 | 23.25952 | 22861 ft | 428 kts | 166° |
| 2026-05-07 18:45 | 56.49655 | 23.28243 | 23250 ft | 437 kts | 153° |
| 2026-05-07 18:45 | 56.47068 | 23.31071 | 23606 ft | 441 kts | 152° |
| 2026-05-07 18:45 | 56.44444 | 23.33991 | 23929 ft | 443 kts | 152° |
| 2026-05-07 18:45 | 56.41801 | 23.36872 | 24260 ft | 443 kts | 154° |
| 2026-05-07 18:46 | 56.39032 | 23.39274 | 24555 ft | 439 kts | 163° |
| 2026-05-07 18:46 | 56.36119 | 23.40750 | 24886 ft | 433 kts | 174° |
| 2026-05-07 18:46 | 56.33143 | 23.41265 | 25244 ft | 427 kts | 184° |
| 2026-05-07 18:46 | 56.30206 | 23.40879 | 25607 ft | 422 kts | 191° |
| 2026-05-07 18:47 | 56.27336 | 23.40094 | 25988 ft | 421 kts | 193° |
| 2026-05-07 18:47 | 56.24447 | 23.39158 | 26353 ft | 421 kts | 194° |
| 2026-05-07 18:47 | 56.21563 | 23.38153 | 26722 ft | 422 kts | 195° |
| 2026-05-07 18:47 | 56.18676 | 23.37126 | 27091 ft | 423 kts | 195° |
| 2026-05-07 18:48 | 56.15776 | 23.36100 | 27460 ft | 424 kts | 195° |
| 2026-05-07 18:48 | 56.12883 | 23.35090 | 27811 ft | 426 kts | 195° |
| 2026-05-07 18:48 | 56.09958 | 23.34083 | 28181 ft | 428 kts | 195° |
| 2026-05-07 18:48 | 56.07017 | 23.33082 | 28535 ft | 429 kts | 195° |
| 2026-05-07 18:49 | 56.04082 | 23.32089 | 28900 ft | 431 kts | 195° |
| 2026-05-07 18:49 | 56.01133 | 23.31096 | 29263 ft | 432 kts | 195° |
| 2026-05-07 18:49 | 55.98167 | 23.30099 | 29606 ft | 434 kts | 195° |
| 2026-05-07 18:49 | 55.95192 | 23.29099 | 29929 ft | 436 kts | 195° |
| 2026-05-07 18:50 | 55.92204 | 23.28095 | 30233 ft | 438 kts | 195° |
| 2026-05-07 18:50 | 55.89202 | 23.27089 | 30512 ft | 440 kts | 195° |
| 2026-05-07 18:50 | 55.86195 | 23.26082 | 30891 ft | 439 kts | 194° |
| 2026-05-07 18:50 | 55.83232 | 23.25093 | 31291 ft | 438 kts | 194° |
| 2026-05-07 18:51 | 55.80213 | 23.24089 | 31692 ft | 437 kts | 194° |
| 2026-05-07 18:51 | 55.77254 | 23.23106 | 32085 ft | 436 kts | 194° |
| 2026-05-07 18:51 | 55.74276 | 23.22119 | 32485 ft | 435 kts | 194° |
| 2026-05-07 18:51 | 55.71268 | 23.21123 | 32888 ft | 434 kts | 193° |
| 2026-05-07 18:52 | 55.68302 | 23.20142 | 33286 ft | 433 kts | 193° |
| 2026-05-07 18:52 | 55.65348 | 23.19167 | 33704 ft | 431 kts | 193° |
| 2026-05-07 18:52 | 55.62444 | 23.18208 | 34089 ft | 430 kts | 193° |
| 2026-05-07 18:52 | 55.59512 | 23.17241 | 34377 ft | 430 kts | 193° |
| 2026-05-07 18:53 | 55.56548 | 23.16308 | 34606 ft | 433 kts | 191° |
| 2026-05-07 18:53 | 55.53534 | 23.15784 | 34842 ft | 437 kts | 187° |
| 2026-05-07 18:53 | 55.50496 | 23.15463 | 35042 ft | 439 kts | 186° |
| 2026-05-07 18:53 | 55.47429 | 23.15207 | 35274 ft | 441 kts | 185° |
| 2026-05-07 18:54 | 55.44366 | 23.14981 | 35504 ft | 442 kts | 185° |
| 2026-05-07 18:54 | 55.41281 | 23.14760 | 35724 ft | 443 kts | 185° |
| 2026-05-07 18:54 | 55.38227 | 23.14538 | 35930 ft | 444 kts | 185° |
| 2026-05-07 18:54 | 55.35130 | 23.14305 | 36147 ft | 445 kts | 185° |
| 2026-05-07 18:55 | 55.32020 | 23.14065 | 36355 ft | 447 kts | 185° |
| 2026-05-07 18:55 | 55.28917 | 23.13821 | 36570 ft | 448 kts | 185° |
| 2026-05-07 18:55 | 55.25792 | 23.13575 | 36773 ft | 449 kts | 185° |
| 2026-05-07 18:55 | 55.22671 | 23.13328 | 36956 ft | 450 kts | 185° |
| 2026-05-07 18:56 | 55.19528 | 23.13081 | 37040 ft | 454 kts | 185° |
| 2026-05-07 18:56 | 55.13197 | 23.12590 | 37040 ft | 458 kts | 185° |
| 2026-05-07 18:57 | 55.06849 | 23.12107 | 37038 ft | 456 kts | 185° |
| 2026-05-07 18:57 | 55.00511 | 23.11622 | 37037 ft | 456 kts | 185° |
| 2026-05-07 18:58 | 54.94175 | 23.11136 | 37033 ft | 456 kts | 185° |
| 2026-05-07 18:58 | 54.87835 | 23.10651 | 37031 ft | 456 kts | 185° |
| 2026-05-07 18:59 | 54.81500 | 23.10168 | 37030 ft | 456 kts | 185° |
| 2026-05-07 18:59 | 54.75164 | 23.09687 | 37345 ft | 454 kts | 185° |
| 2026-05-07 18:59 | 54.72012 | 23.09445 | 37591 ft | 454 kts | 185° |
| 2026-05-07 19:00 | 54.68853 | 23.09202 | 37805 ft | 454 kts | 185° |
| 2026-05-07 19:00 | 54.65696 | 23.08957 | 37991 ft | 455 kts | 185° |
| 2026-05-07 19:00 | 54.62510 | 23.08712 | 38034 ft | 459 kts | 184° |
| 2026-05-07 19:01 | 54.56104 | 23.08229 | 38032 ft | 462 kts | 184° |
| 2026-05-07 19:01 | 54.49666 | 23.07752 | 38033 ft | 469 kts | 184° |
| 2026-05-07 19:02 | 54.43110 | 23.07275 | 38028 ft | 473 kts | 184° |
| 2026-05-07 19:02 | 54.36504 | 23.06794 | 38029 ft | 474 kts | 184° |
| 2026-05-07 19:03 | 54.29939 | 23.06012 | 38026 ft | 471 kts | 190° |
| 2026-05-07 19:03 | 54.23470 | 23.04116 | 38027 ft | 470 kts | 192° |
| 2026-05-07 19:04 | 54.17060 | 23.02050 | 38019 ft | 469 kts | 193° |
| 2026-05-07 19:04 | 54.11003 | 22.98119 | 38023 ft | 464 kts | 208° |
| 2026-05-07 19:05 | 54.05498 | 22.92552 | 38026 ft | 463 kts | 213° |
| 2026-05-07 19:05 | 54.00187 | 22.86395 | 38032 ft | 462 kts | 215° |
| 2026-05-07 19:06 | 53.95043 | 22.79841 | 38021 ft | 461 kts | 217° |
| 2026-05-07 19:06 | 53.87420 | 22.69872 | 38019 ft | 461 kts | 217° |
| 2026-05-07 19:07 | 53.82369 | 22.63265 | 38019 ft | 461 kts | 217° |
| 2026-05-07 19:07 | 53.77296 | 22.56635 | 38017 ft | 461 kts | 217° |
| 2026-05-07 19:08 | 53.72204 | 22.50030 | 38022 ft | 461 kts | 214° |
| 2026-05-07 19:08 | 53.69391 | 22.47455 | 38028 ft | 462 kts | 199° |
| 2026-05-07 19:08 | 53.66236 | 22.46439 | 38014 ft | 464 kts | 182° |
| 2026-05-07 19:09 | 53.63008 | 22.47026 | 38008 ft | 470 kts | 170° |
| 2026-05-07 19:09 | 53.59799 | 22.48211 | 38006 ft | 473 kts | 170° |
| 2026-05-07 19:09 | 53.53305 | 22.50113 | 38014 ft | 474 kts | 176° |
| 2026-05-07 19:10 | 53.46750 | 22.50883 | 38011 ft | 474 kts | 179° |
| 2026-05-07 19:10 | 53.40152 | 22.51239 | 38007 ft | 473 kts | 180° |
| 2026-05-07 19:11 | 53.33557 | 22.51472 | 38002 ft | 473 kts | 180° |
| 2026-05-07 19:11 | 53.26990 | 22.51710 | 38001 ft | 472 kts | 180° |
| 2026-05-07 19:12 | 53.20444 | 22.51967 | 38003 ft | 472 kts | 180° |
| 2026-05-07 19:12 | 53.14983 | 22.52187 | 37998 ft | 472 kts | 180° |
| 2026-05-07 19:13 | 53.08410 | 22.52454 | 37997 ft | 472 kts | 180° |
| 2026-05-07 19:13 | 53.01846 | 22.52720 | 37997 ft | 471 kts | 180° |
| 2026-05-07 19:14 | 52.95280 | 22.52983 | 37993 ft | 471 kts | 180° |
| 2026-05-07 19:14 | 52.88732 | 22.53245 | 37994 ft | 471 kts | 180° |
| 2026-05-07 19:15 | 52.82200 | 22.53504 | 37993 ft | 472 kts | 180° |
| 2026-05-07 19:15 | 52.75638 | 22.53765 | 37990 ft | 472 kts | 180° |
| 2026-05-07 19:16 | 52.69052 | 22.54026 | 37985 ft | 472 kts | 180° |
| 2026-05-07 19:16 | 52.62478 | 22.54233 | 37981 ft | 471 kts | 183° |
| 2026-05-07 19:17 | 52.55994 | 22.53251 | 37988 ft | 470 kts | 187° |
| 2026-05-07 19:17 | 52.49508 | 22.51901 | 37984 ft | 469 kts | 188° |
| 2026-05-07 19:18 | 52.43035 | 22.50509 | 37980 ft | 469 kts | 188° |
| 2026-05-07 19:18 | 52.36588 | 22.49142 | 37982 ft | 469 kts | 188° |
| 2026-05-07 19:19 | 52.30137 | 22.47795 | 37980 ft | 469 kts | 188° |
| 2026-05-07 19:19 | 52.23632 | 22.46446 | 37977 ft | 469 kts | 188° |
| 2026-05-07 19:20 | 52.17172 | 22.45108 | 37978 ft | 468 kts | 188° |
| 2026-05-07 19:20 | 52.10690 | 22.43768 | 37974 ft | 468 kts | 188° |
| 2026-05-07 19:21 | 52.04256 | 22.42440 | 37971 ft | 469 kts | 188° |
| 2026-05-07 19:21 | 51.97768 | 22.41105 | 37975 ft | 469 kts | 188° |
| 2026-05-07 19:22 | 51.91289 | 22.39776 | 37973 ft | 470 kts | 188° |
| 2026-05-07 19:22 | 51.84835 | 22.38460 | 37972 ft | 470 kts | 188° |
| 2026-05-07 19:23 | 51.78348 | 22.37141 | 37970 ft | 470 kts | 188° |
| 2026-05-07 19:23 | 51.71862 | 22.35825 | 37973 ft | 470 kts | 188° |
| 2026-05-07 19:24 | 51.65344 | 22.34506 | 37972 ft | 471 kts | 188° |
| 2026-05-07 19:24 | 51.58836 | 22.33193 | 37969 ft | 471 kts | 188° |
| 2026-05-07 19:25 | 51.52325 | 22.31884 | 37971 ft | 471 kts | 188° |
| 2026-05-07 19:25 | 51.45873 | 22.30590 | 37970 ft | 470 kts | 188° |
| 2026-05-07 19:26 | 51.39368 | 22.29289 | 37968 ft | 470 kts | 188° |
| 2026-05-07 19:26 | 51.32863 | 22.27989 | 37965 ft | 470 kts | 188° |
| 2026-05-07 19:27 | 51.26383 | 22.26695 | 37964 ft | 469 kts | 188° |
| 2026-05-07 19:27 | 51.19908 | 22.25407 | 37962 ft | 468 kts | 188° |
| 2026-05-07 19:28 | 51.13476 | 22.24134 | 37965 ft | 468 kts | 188° |
| 2026-05-07 19:28 | 51.07010 | 22.22859 | 37961 ft | 467 kts | 188° |
| 2026-05-07 19:29 | 51.00564 | 22.21590 | 37962 ft | 467 kts | 188° |
| 2026-05-07 19:29 | 50.94112 | 22.20323 | 37965 ft | 466 kts | 188° |
| 2026-05-07 19:30 | 50.87687 | 22.19067 | 37961 ft | 466 kts | 188° |
| 2026-05-07 19:30 | 50.81246 | 22.17812 | 37960 ft | 466 kts | 188° |
| 2026-05-07 19:31 | 50.74809 | 22.16561 | 37978 ft | 466 kts | 188° |
| 2026-05-07 19:31 | 50.68371 | 22.15312 | 37970 ft | 466 kts | 188° |
| 2026-05-07 19:32 | 50.61931 | 22.14065 | 37969 ft | 466 kts | 188° |
| 2026-05-07 19:32 | 50.55528 | 22.12829 | 37965 ft | 466 kts | 188° |
| 2026-05-07 19:33 | 50.49087 | 22.11589 | 37969 ft | 466 kts | 188° |
| 2026-05-07 19:33 | 50.42633 | 22.10351 | 37956 ft | 467 kts | 188° |
| 2026-05-07 19:34 | 50.36204 | 22.09123 | 37964 ft | 467 kts | 188° |
| 2026-05-07 19:34 | 50.29735 | 22.07889 | 37967 ft | 467 kts | 188° |
| 2026-05-07 19:35 | 50.23360 | 22.06677 | 37964 ft | 467 kts | 188° |
| 2026-05-07 19:35 | 50.16845 | 22.05442 | 37963 ft | 468 kts | 188° |
| 2026-05-07 19:36 | 50.10386 | 22.04219 | 37991 ft | 468 kts | 188° |
| 2026-05-07 19:36 | 50.03913 | 22.02997 | 37996 ft | 468 kts | 188° |
| 2026-05-07 19:37 | 49.97460 | 22.01782 | 37986 ft | 468 kts | 188° |
| 2026-05-07 19:37 | 49.90988 | 22.00566 | 37979 ft | 468 kts | 188° |
| 2026-05-07 19:38 | 49.84558 | 21.99361 | 37977 ft | 467 kts | 188° |
| 2026-05-07 19:38 | 49.78103 | 21.98154 | 37971 ft | 467 kts | 188° |
| 2026-05-07 19:39 | 49.71637 | 21.96950 | 37967 ft | 467 kts | 188° |
| 2026-05-07 19:39 | 49.65181 | 21.95750 | 37969 ft | 467 kts | 188° |
| 2026-05-07 19:40 | 49.58746 | 21.94557 | 37970 ft | 467 kts | 188° |
| 2026-05-07 19:40 | 49.52300 | 21.93365 | 37973 ft | 467 kts | 188° |
| 2026-05-07 19:41 | 49.45838 | 21.92174 | 37974 ft | 468 kts | 188° |
| 2026-05-07 19:41 | 49.39376 | 21.90986 | 37971 ft | 468 kts | 188° |
| 2026-05-07 19:42 | 49.32894 | 21.89797 | 37974 ft | 468 kts | 188° |
| 2026-05-07 19:42 | 49.26415 | 21.88614 | 37977 ft | 468 kts | 188° |
| 2026-05-07 19:43 | 49.19986 | 21.87442 | 37973 ft | 468 kts | 188° |
| 2026-05-07 19:43 | 49.13519 | 21.86267 | 37983 ft | 468 kts | 188° |
| 2026-05-07 19:44 | 49.07064 | 21.85099 | 37980 ft | 468 kts | 188° |
| 2026-05-07 19:44 | 49.00573 | 21.83925 | 37982 ft | 468 kts | 188° |
| 2026-05-07 19:45 | 48.94098 | 21.82756 | 37987 ft | 468 kts | 188° |
| 2026-05-07 19:45 | 48.87563 | 21.82392 | 37980 ft | 471 kts | 176° |
| 2026-05-07 19:46 | 48.81025 | 21.83577 | 37972 ft | 475 kts | 174° |
| 2026-05-07 19:46 | 48.74481 | 21.85011 | 37989 ft | 476 kts | 173° |
| 2026-05-07 19:47 | 48.67915 | 21.86452 | 37991 ft | 477 kts | 174° |
| 2026-05-07 19:47 | 48.61369 | 21.87852 | 37995 ft | 477 kts | 174° |
| 2026-05-07 19:48 | 48.54795 | 21.89236 | 37997 ft | 477 kts | 174° |
| 2026-05-07 19:48 | 48.48213 | 21.90613 | 37996 ft | 477 kts | 174° |
| 2026-05-07 19:49 | 48.41661 | 21.92004 | 37999 ft | 478 kts | 172° |
| 2026-05-07 19:49 | 48.35247 | 21.94950 | 38002 ft | 485 kts | 156° |
| 2026-05-07 19:50 | 48.29535 | 22.00381 | 38003 ft | 492 kts | 147° |
| 2026-05-07 19:50 | 48.24020 | 22.06558 | 38006 ft | 495 kts | 146° |
| 2026-05-07 19:51 | 48.18509 | 22.12803 | 38008 ft | 496 kts | 146° |
| 2026-05-07 19:51 | 48.12964 | 22.18995 | 38012 ft | 496 kts | 146° |
| 2026-05-07 19:52 | 48.07432 | 22.25104 | 38015 ft | 496 kts | 146° |
| 2026-05-07 19:52 | 48.01853 | 22.31235 | 38017 ft | 497 kts | 146° |
| 2026-05-07 19:53 | 47.96284 | 22.37340 | 38016 ft | 497 kts | 146° |
| 2026-05-07 19:53 | 47.90726 | 22.43416 | 38016 ft | 497 kts | 146° |
| 2026-05-07 19:54 | 47.85130 | 22.49520 | 38025 ft | 498 kts | 146° |
| 2026-05-07 19:54 | 47.79526 | 22.55618 | 38030 ft | 498 kts | 146° |
| 2026-05-07 19:55 | 47.73943 | 22.61675 | 38038 ft | 499 kts | 146° |
| 2026-05-07 19:55 | 47.68329 | 22.67750 | 38045 ft | 499 kts | 146° |
| 2026-05-07 19:56 | 47.62707 | 22.73817 | 38047 ft | 500 kts | 146° |
| 2026-05-07 19:56 | 47.57074 | 22.79879 | 38041 ft | 501 kts | 146° |
| 2026-05-07 19:57 | 47.51427 | 22.85941 | 38038 ft | 501 kts | 146° |
| 2026-05-07 19:57 | 47.46006 | 22.91745 | 38033 ft | 501 kts | 146° |
| 2026-05-07 19:58 | 47.40369 | 22.97763 | 38034 ft | 502 kts | 146° |
| 2026-05-07 19:58 | 47.34710 | 23.03787 | 38033 ft | 502 kts | 146° |
| 2026-05-07 19:59 | 47.29078 | 23.09770 | 38029 ft | 503 kts | 146° |
| 2026-05-07 19:59 | 47.23404 | 23.15868 | 38032 ft | 503 kts | 144° |
| 2026-05-07 20:00 | 47.18788 | 23.21213 | 38030 ft | 504 kts | 143° |
| 2026-05-07 20:00 | 47.13348 | 23.27652 | 38032 ft | 505 kts | 143° |
| 2026-05-07 20:01 | 47.07863 | 23.34091 | 38047 ft | 505 kts | 143° |
| 2026-05-07 20:01 | 47.02347 | 23.40503 | 38042 ft | 505 kts | 143° |
| 2026-05-07 20:02 | 46.96825 | 23.46888 | 38040 ft | 505 kts | 143° |
| 2026-05-07 20:02 | 46.91490 | 23.53039 | 38044 ft | 505 kts | 143° |
| 2026-05-07 20:03 | 46.85971 | 23.59387 | 38045 ft | 505 kts | 143° |
| 2026-05-07 20:03 | 46.80483 | 23.65683 | 38047 ft | 505 kts | 143° |
| 2026-05-07 20:04 | 46.74955 | 23.72007 | 38047 ft | 505 kts | 143° |
| 2026-05-07 20:04 | 46.69415 | 23.78330 | 38044 ft | 505 kts | 143° |
| 2026-05-07 20:05 | 46.63889 | 23.84619 | 38043 ft | 505 kts | 144° |
| 2026-05-07 20:05 | 46.58353 | 23.90903 | 38040 ft | 505 kts | 143° |
| 2026-05-07 20:06 | 46.52810 | 23.97178 | 38241 ft | 501 kts | 143° |
| 2026-05-07 20:06 | 46.50076 | 24.00265 | 38721 ft | 495 kts | 144° |
| 2026-05-07 20:06 | 46.47395 | 24.03282 | 38964 ft | 493 kts | 144° |
| 2026-05-07 20:07 | 46.41960 | 24.09384 | 39038 ft | 499 kts | 144° |
| 2026-05-07 20:07 | 46.36361 | 24.15511 | 39039 ft | 504 kts | 145° |
| 2026-05-07 20:08 | 46.30843 | 24.21381 | 39042 ft | 506 kts | 145° |
| 2026-05-07 20:08 | 46.25191 | 24.27374 | 39036 ft | 507 kts | 145° |
| 2026-05-07 20:09 | 46.19516 | 24.33394 | 39032 ft | 506 kts | 145° |
| 2026-05-07 20:10 | 46.10984 | 24.42427 | 39028 ft | 507 kts | 145° |
| 2026-05-07 20:10 | 46.05287 | 24.48440 | 39032 ft | 507 kts | 145° |
| 2026-05-07 20:11 | 45.99607 | 24.54422 | 39031 ft | 507 kts | 145° |
| 2026-05-07 20:11 | 45.94106 | 24.60197 | 39052 ft | 507 kts | 145° |
| 2026-05-07 20:12 | 45.88436 | 24.66136 | 39036 ft | 507 kts | 145° |
| 2026-05-07 20:13 | 45.76254 | 24.78840 | 39055 ft | 508 kts | 145° |
| 2026-05-07 20:13 | 45.70547 | 24.84770 | 39056 ft | 508 kts | 145° |
| 2026-05-07 20:14 | 45.64811 | 24.90715 | 39062 ft | 509 kts | 145° |
| 2026-05-07 20:14 | 45.59069 | 24.96649 | 39062 ft | 510 kts | 145° |
| 2026-05-07 20:15 | 45.53316 | 25.02581 | 39069 ft | 510 kts | 146° |
| 2026-05-07 20:15 | 45.48528 | 25.07505 | 39071 ft | 511 kts | 146° |
| 2026-05-07 20:16 | 45.42769 | 25.13416 | 39071 ft | 511 kts | 146° |
| 2026-05-07 20:16 | 45.37000 | 25.19322 | 39075 ft | 511 kts | 146° |
| 2026-05-07 20:17 | 45.31232 | 25.25209 | 39071 ft | 510 kts | 146° |
| 2026-05-07 20:17 | 45.25453 | 25.31092 | 39073 ft | 510 kts | 146° |
| 2026-05-07 20:18 | 45.19671 | 25.36964 | 39073 ft | 510 kts | 146° |
| 2026-05-07 20:18 | 45.13888 | 25.42821 | 39065 ft | 511 kts | 146° |
| 2026-05-07 20:19 | 45.08134 | 25.48635 | 39066 ft | 511 kts | 146° |
| 2026-05-07 20:19 | 45.02345 | 25.54470 | 39062 ft | 511 kts | 146° |
| 2026-05-07 20:20 | 44.95951 | 25.60896 | 39060 ft | 511 kts | 146° |
| 2026-05-07 20:20 | 44.90160 | 25.66702 | 39055 ft | 511 kts | 146° |
| 2026-05-07 20:21 | 44.85021 | 25.71842 | 39054 ft | 511 kts | 146° |
| 2026-05-07 20:21 | 44.79202 | 25.77646 | 39050 ft | 511 kts | 146° |
| 2026-05-07 20:22 | 44.73388 | 25.83432 | 39048 ft | 512 kts | 146° |
| 2026-05-07 20:22 | 44.67602 | 25.89176 | 39049 ft | 512 kts | 146° |
| 2026-05-07 20:23 | 44.61778 | 25.94945 | 39047 ft | 512 kts | 146° |
| 2026-05-07 20:23 | 44.55947 | 26.00704 | 39048 ft | 512 kts | 146° |
| 2026-05-07 20:24 | 44.50073 | 26.06492 | 39048 ft | 513 kts | 146° |
| 2026-05-07 20:24 | 44.44251 | 26.12212 | 39048 ft | 513 kts | 146° |
| 2026-05-07 20:25 | 44.38396 | 26.17955 | 39046 ft | 514 kts | 146° |
| 2026-05-07 20:25 | 44.32534 | 26.23689 | 39047 ft | 514 kts | 146° |
| 2026-05-07 20:26 | 44.26714 | 26.29366 | 39043 ft | 514 kts | 146° |
| 2026-05-07 20:26 | 44.20845 | 26.35078 | 39043 ft | 514 kts | 146° |
| 2026-05-07 20:27 | 44.14211 | 26.41515 | 39042 ft | 515 kts | 146° |
| 2026-05-07 20:27 | 44.08323 | 26.47216 | 39042 ft | 515 kts | 146° |
| 2026-05-07 20:28 | 44.02436 | 26.52802 | 39043 ft | 515 kts | 148° |
| 2026-05-07 20:28 | 43.96425 | 26.58218 | 39044 ft | 515 kts | 148° |
| 2026-05-07 20:29 | 43.90387 | 26.63600 | 39048 ft | 515 kts | 148° |
| 2026-05-07 20:29 | 43.84389 | 26.68960 | 39051 ft | 516 kts | 148° |
| 2026-05-07 20:30 | 43.79369 | 26.73453 | 39054 ft | 516 kts | 148° |
| 2026-05-07 20:30 | 43.73330 | 26.78851 | 39059 ft | 516 kts | 148° |
| 2026-05-07 20:31 | 43.67280 | 26.84245 | 39060 ft | 517 kts | 148° |
| 2026-05-07 20:31 | 43.61217 | 26.89635 | 39063 ft | 517 kts | 148° |
| 2026-05-07 20:32 | 43.55195 | 26.94977 | 39084 ft | 517 kts | 148° |
| 2026-05-07 20:32 | 43.49143 | 27.00332 | 39078 ft | 518 kts | 149° |
| 2026-05-07 20:33 | 43.43074 | 27.05691 | 39085 ft | 518 kts | 149° |
| 2026-05-07 20:33 | 43.38207 | 27.09978 | 39086 ft | 518 kts | 149° |
| 2026-05-07 20:34 | 43.32105 | 27.15340 | 39090 ft | 518 kts | 149° |
| 2026-05-07 20:34 | 43.26073 | 27.20626 | 39082 ft | 518 kts | 149° |
| 2026-05-07 20:35 | 43.19974 | 27.25962 | 39082 ft | 519 kts | 149° |
| 2026-05-07 20:35 | 43.13945 | 27.31224 | 39096 ft | 519 kts | 149° |
| 2026-05-07 20:36 | 43.07842 | 27.36535 | 39096 ft | 519 kts | 149° |
| 2026-05-07 20:36 | 43.01752 | 27.41848 | 39097 ft | 520 kts | 147° |
| 2026-05-07 20:37 | 42.96282 | 27.48372 | 39090 ft | 524 kts | 134° |
| 2026-05-07 20:37 | 42.91306 | 27.55664 | 39103 ft | 526 kts | 133° |
| 2026-05-07 20:38 | 42.86416 | 27.63044 | 39099 ft | 527 kts | 132° |
| 2026-05-07 20:38 | 42.81508 | 27.70401 | 39107 ft | 528 kts | 133° |
| 2026-05-07 20:39 | 42.76623 | 27.77657 | 39110 ft | 528 kts | 133° |
| 2026-05-07 20:39 | 42.71566 | 27.85127 | 39104 ft | 528 kts | 133° |
| 2026-05-07 20:40 | 42.66580 | 27.92471 | 39110 ft | 529 kts | 133° |
| 2026-05-07 20:40 | 42.61580 | 27.99819 | 39112 ft | 529 kts | 133° |
| 2026-05-07 20:41 | 42.56576 | 28.07154 | 39111 ft | 530 kts | 133° |
| 2026-05-07 20:41 | 42.51567 | 28.14481 | 39112 ft | 530 kts | 133° |
| 2026-05-07 20:42 | 42.46572 | 28.21767 | 39113 ft | 530 kts | 133° |
| 2026-05-07 20:42 | 42.41537 | 28.29093 | 39114 ft | 531 kts | 133° |
| 2026-05-07 20:43 | 42.36495 | 28.36411 | 39118 ft | 531 kts | 133° |
| 2026-05-07 20:43 | 42.31445 | 28.43720 | 39114 ft | 531 kts | 133° |
| 2026-05-07 20:44 | 42.26386 | 28.51024 | 39119 ft | 532 kts | 133° |
| 2026-05-07 20:44 | 42.21330 | 28.58309 | 39120 ft | 532 kts | 133° |
| 2026-05-07 20:45 | 42.16262 | 28.65594 | 39119 ft | 533 kts | 133° |
| 2026-05-07 20:45 | 42.11040 | 28.72662 | 39114 ft | 531 kts | 141° |
| 2026-05-07 20:46 | 42.04757 | 28.77626 | 39120 ft | 525 kts | 161° |
| 2026-05-07 20:46 | 41.97741 | 28.80185 | 39120 ft | 521 kts | 169° |
| 2026-05-07 20:47 | 41.90649 | 28.82196 | 39122 ft | 521 kts | 170° |
| 2026-05-07 20:47 | 41.83549 | 28.84154 | 39122 ft | 521 kts | 170° |
| 2026-05-07 20:48 | 41.76453 | 28.86160 | 39116 ft | 521 kts | 170° |
| 2026-05-07 20:48 | 41.69385 | 28.88190 | 39115 ft | 521 kts | 170° |
| 2026-05-07 20:49 | 41.62270 | 28.90238 | 39115 ft | 522 kts | 170° |
| 2026-05-07 20:49 | 41.55166 | 28.92276 | 39114 ft | 522 kts | 170° |
| 2026-05-07 20:50 | 41.48067 | 28.94306 | 39116 ft | 522 kts | 170° |
| 2026-05-07 20:50 | 41.41003 | 28.96322 | 39115 ft | 522 kts | 170° |
| 2026-05-07 20:51 | 41.33889 | 28.98347 | 39115 ft | 523 kts | 170° |
| 2026-05-07 20:51 | 41.26767 | 29.00370 | 39118 ft | 523 kts | 170° |
| 2026-05-07 20:52 | 41.19648 | 29.02387 | 39120 ft | 523 kts | 170° |
| 2026-05-07 20:52 | 41.12536 | 29.04398 | 39127 ft | 523 kts | 170° |
| 2026-05-07 20:53 | 41.05409 | 29.06408 | 39127 ft | 523 kts | 170° |
| 2026-05-07 20:53 | 40.98322 | 29.08404 | 39134 ft | 524 kts | 170° |
| 2026-05-07 20:54 | 40.91171 | 29.10413 | 39130 ft | 524 kts | 170° |
| 2026-05-07 20:54 | 40.84037 | 29.12410 | 39128 ft | 524 kts | 170° |
| 2026-05-07 20:55 | 40.76897 | 29.14407 | 39132 ft | 525 kts | 170° |
| 2026-05-07 20:55 | 40.69740 | 29.16404 | 39136 ft | 525 kts | 170° |
| 2026-05-07 20:56 | 40.62586 | 29.18396 | 39142 ft | 526 kts | 170° |
| 2026-05-07 20:56 | 40.55457 | 29.20376 | 39150 ft | 526 kts | 170° |
| 2026-05-07 20:57 | 40.48293 | 29.22361 | 39151 ft | 526 kts | 171° |
| 2026-05-07 20:57 | 40.41120 | 29.24345 | 39153 ft | 527 kts | 171° |
| 2026-05-07 20:58 | 40.33937 | 29.26326 | 39159 ft | 527 kts | 171° |
| 2026-05-07 20:58 | 40.26790 | 29.28294 | 39159 ft | 528 kts | 171° |
| 2026-05-07 20:59 | 40.19594 | 29.30273 | 39164 ft | 528 kts | 171° |
| 2026-05-07 20:59 | 40.12379 | 29.32250 | 39166 ft | 529 kts | 171° |
| 2026-05-07 21:00 | 40.05211 | 29.34210 | 39170 ft | 529 kts | 171° |
| 2026-05-07 21:00 | 39.97997 | 29.36179 | 39185 ft | 530 kts | 171° |
| 2026-05-07 21:01 | 39.90806 | 29.38359 | 39197 ft | 534 kts | 163° |
| 2026-05-07 21:01 | 39.83854 | 29.41858 | 39200 ft | 536 kts | 159° |
| 2026-05-07 21:02 | 39.76963 | 29.45657 | 39204 ft | 538 kts | 158° |
| 2026-05-07 21:02 | 39.70079 | 29.49488 | 39207 ft | 538 kts | 159° |
| 2026-05-07 21:03 | 39.63171 | 29.53276 | 39209 ft | 539 kts | 160° |
| 2026-05-07 21:03 | 39.56191 | 29.56823 | 39214 ft | 538 kts | 161° |
| 2026-05-07 21:04 | 39.49229 | 29.60249 | 39219 ft | 539 kts | 161° |
| 2026-05-07 21:04 | 39.42198 | 29.63718 | 39223 ft | 539 kts | 161° |
| 2026-05-07 21:05 | 39.35183 | 29.67195 | 39221 ft | 540 kts | 161° |
| 2026-05-07 21:05 | 39.28365 | 29.70577 | 39219 ft | 540 kts | 161° |
| 2026-05-07 21:06 | 39.21293 | 29.74078 | 39230 ft | 540 kts | 161° |
| 2026-05-07 21:06 | 39.14255 | 29.77554 | 39228 ft | 541 kts | 161° |
| 2026-05-07 21:07 | 39.07222 | 29.81018 | 39232 ft | 541 kts | 161° |
| 2026-05-07 21:07 | 39.00237 | 29.84451 | 39237 ft | 542 kts | 161° |
| 2026-05-07 21:08 | 38.93175 | 29.87916 | 39235 ft | 543 kts | 161° |
| 2026-05-07 21:08 | 38.86104 | 29.91359 | 39227 ft | 543 kts | 161° |
| 2026-05-07 21:09 | 38.79020 | 29.94730 | 39242 ft | 544 kts | 161° |
| 2026-05-07 21:09 | 38.71908 | 29.98093 | 39238 ft | 544 kts | 161° |
| 2026-05-07 21:10 | 38.64829 | 30.01439 | 39232 ft | 545 kts | 161° |
| 2026-05-07 21:10 | 38.57707 | 30.04804 | 39235 ft | 546 kts | 161° |
| 2026-05-07 21:11 | 38.50572 | 30.08170 | 39234 ft | 546 kts | 161° |
| 2026-05-07 21:11 | 38.39850 | 30.13216 | 39231 ft | 547 kts | 161° |
| 2026-05-07 21:12 | 38.32744 | 30.16548 | 39231 ft | 548 kts | 161° |
| 2026-05-07 21:12 | 38.25564 | 30.19858 | 39231 ft | 548 kts | 162° |
| 2026-05-07 21:13 | 38.18385 | 30.23144 | 39231 ft | 548 kts | 162° |
| 2026-05-07 21:13 | 38.11243 | 30.26413 | 39222 ft | 548 kts | 162° |
| 2026-05-07 21:14 | 38.04055 | 30.29702 | 39222 ft | 549 kts | 162° |
| 2026-05-07 21:14 | 37.96895 | 30.32965 | 39209 ft | 548 kts | 162° |
| 2026-05-07 21:15 | 37.89679 | 30.36234 | 39211 ft | 549 kts | 162° |
| 2026-05-07 21:15 | 37.82482 | 30.39484 | 39211 ft | 549 kts | 162° |
| 2026-05-07 21:16 | 37.75276 | 30.42733 | 39211 ft | 549 kts | 162° |
| 2026-05-07 21:16 | 37.68114 | 30.45957 | 39212 ft | 550 kts | 162° |
| 2026-05-07 21:17 | 37.60911 | 30.49193 | 39218 ft | 550 kts | 161° |
| 2026-05-07 21:17 | 37.53703 | 30.52425 | 39217 ft | 550 kts | 161° |
| 2026-05-07 21:18 | 37.46474 | 30.55657 | 39212 ft | 551 kts | 161° |
| 2026-05-07 21:18 | 37.39221 | 30.58896 | 39208 ft | 551 kts | 161° |
| 2026-05-07 21:19 | 37.32015 | 30.62107 | 39199 ft | 551 kts | 161° |
| 2026-05-07 21:19 | 37.25959 | 30.64801 | 39191 ft | 551 kts | 161° |
| 2026-05-07 21:20 | 37.18760 | 30.67997 | 39186 ft | 552 kts | 161° |
| 2026-05-07 21:20 | 37.11522 | 30.71206 | 39171 ft | 552 kts | 161° |
| 2026-05-07 21:21 | 37.04277 | 30.74410 | 39165 ft | 552 kts | 161° |
| 2026-05-07 21:21 | 36.97022 | 30.77610 | 39157 ft | 552 kts | 161° |
| 2026-05-07 21:22 | 36.89575 | 30.79721 | 39161 ft | 545 kts | 178° |
| 2026-05-07 21:22 | 36.82012 | 30.80234 | 39154 ft | 543 kts | 181° |
| 2026-05-07 21:23 | 36.74498 | 30.80458 | 39157 ft | 543 kts | 181° |
| 2026-05-07 21:23 | 36.66929 | 30.80662 | 39152 ft | 544 kts | 181° |
| 2026-05-07 21:24 | 36.59347 | 30.80900 | 39141 ft | 545 kts | 181° |
| 2026-05-07 21:24 | 36.51755 | 30.81159 | 39144 ft | 545 kts | 181° |
| 2026-05-07 21:25 | 36.44175 | 30.81422 | 39135 ft | 545 kts | 181° |
| 2026-05-07 21:25 | 36.36624 | 30.81680 | 39132 ft | 546 kts | 181° |
| 2026-05-07 21:26 | 36.29019 | 30.81933 | 39133 ft | 547 kts | 181° |
| 2026-05-07 21:26 | 36.21413 | 30.82186 | 39134 ft | 547 kts | 181° |
| 2026-05-07 21:27 | 36.13786 | 30.82439 | 39131 ft | 548 kts | 181° |
| 2026-05-07 21:27 | 36.06148 | 30.82693 | 39132 ft | 549 kts | 181° |
| 2026-05-07 21:28 | 35.98499 | 30.83043 | 39129 ft | 550 kts | 180° |
| 2026-05-07 21:28 | 35.90858 | 30.83523 | 39135 ft | 550 kts | 179° |
| 2026-05-07 21:29 | 35.83248 | 30.84009 | 39137 ft | 551 kts | 179° |
| 2026-05-07 21:29 | 35.75581 | 30.84480 | 39132 ft | 552 kts | 180° |
| 2026-05-07 21:30 | 35.67903 | 30.84942 | 39135 ft | 552 kts | 180° |
| 2026-05-07 21:30 | 35.60202 | 30.85388 | 39138 ft | 553 kts | 180° |
| 2026-05-07 21:31 | 35.52511 | 30.85676 | 39138 ft | 552 kts | 181° |
| 2026-05-07 21:31 | 35.44865 | 30.85903 | 39137 ft | 553 kts | 181° |
| 2026-05-07 21:32 | 35.37168 | 30.86141 | 39139 ft | 553 kts | 181° |
| 2026-05-07 21:32 | 35.29451 | 30.86394 | 39147 ft | 553 kts | 181° |
| 2026-05-07 21:33 | 35.21752 | 30.86653 | 39144 ft | 553 kts | 181° |
| 2026-05-07 21:33 | 35.14056 | 30.86911 | 39144 ft | 553 kts | 181° |
| 2026-05-07 21:34 | 35.06403 | 30.87166 | 39142 ft | 553 kts | 181° |
| 2026-05-07 21:34 | 34.98682 | 30.87423 | 39146 ft | 554 kts | 181° |
| 2026-05-07 21:35 | 34.90970 | 30.87679 | 39149 ft | 554 kts | 181° |
| 2026-05-07 21:35 | 34.83262 | 30.87934 | 39146 ft | 554 kts | 181° |
| 2026-05-07 21:36 | 34.75583 | 30.88187 | 39146 ft | 554 kts | 181° |
| 2026-05-07 21:36 | 34.67848 | 30.88442 | 39148 ft | 555 kts | 181° |
| 2026-05-07 21:37 | 34.60160 | 30.88705 | 39148 ft | 555 kts | 180° |
| 2026-05-07 21:37 | 34.52399 | 30.89067 | 39147 ft | 557 kts | 180° |
| 2026-05-07 21:38 | 34.44696 | 30.89464 | 39144 ft | 557 kts | 180° |
| 2026-05-07 21:38 | 34.36927 | 30.89858 | 39143 ft | 558 kts | 180° |
| 2026-05-07 21:39 | 34.29150 | 30.90241 | 39145 ft | 559 kts | 180° |
| 2026-05-07 21:39 | 34.21351 | 30.90630 | 39144 ft | 560 kts | 180° |
| 2026-05-07 21:40 | 34.13605 | 30.91057 | 39147 ft | 561 kts | 180° |
| 2026-05-07 21:40 | 34.05796 | 30.91498 | 39147 ft | 562 kts | 180° |
| 2026-05-07 21:41 | 33.97966 | 30.91937 | 39148 ft | 563 kts | 180° |
| 2026-05-07 21:41 | 33.90121 | 30.92318 | 39145 ft | 564 kts | 181° |
| 2026-05-07 21:42 | 33.82242 | 30.92608 | 39147 ft | 565 kts | 181° |
| 2026-05-07 21:42 | 33.74421 | 30.92885 | 39149 ft | 566 kts | 181° |
| 2026-05-07 21:43 | 33.66528 | 30.93176 | 39149 ft | 567 kts | 181° |
| 2026-05-07 21:43 | 33.58630 | 30.93473 | 39149 ft | 568 kts | 181° |
| 2026-05-07 21:44 | 33.50722 | 30.93773 | 39150 ft | 568 kts | 181° |
| 2026-05-07 21:44 | 33.42805 | 30.94072 | 39150 ft | 569 kts | 181° |
| 2026-05-07 21:45 | 33.34892 | 30.94370 | 39150 ft | 569 kts | 181° |
| 2026-05-07 21:45 | 33.27018 | 30.94667 | 39149 ft | 570 kts | 181° |
| 2026-05-07 21:46 | 33.19082 | 30.94966 | 39145 ft | 570 kts | 181° |
| 2026-05-07 21:46 | 33.11145 | 30.95265 | 39149 ft | 571 kts | 180° |
| 2026-05-07 21:47 | 33.03194 | 30.95900 | 39148 ft | 573 kts | 176° |
| 2026-05-07 21:47 | 32.95290 | 30.96856 | 39147 ft | 574 kts | 176° |
| 2026-05-07 21:48 | 32.87325 | 30.97827 | 39141 ft | 574 kts | 176° |
| 2026-05-07 21:48 | 32.79377 | 30.98742 | 39147 ft | 574 kts | 176° |
| 2026-05-07 21:49 | 32.71259 | 30.99646 | 39145 ft | 574 kts | 176° |
| 2026-05-07 21:49 | 32.63341 | 31.00522 | 39144 ft | 575 kts | 176° |
| 2026-05-07 21:50 | 32.55376 | 31.01403 | 39145 ft | 575 kts | 176° |
| 2026-05-07 21:50 | 32.47395 | 31.02285 | 39146 ft | 575 kts | 176° |
| 2026-05-07 21:51 | 32.39427 | 31.03166 | 39148 ft | 575 kts | 176° |
| 2026-05-07 21:51 | 32.31453 | 31.04046 | 39146 ft | 575 kts | 176° |
| 2026-05-07 21:52 | 32.23470 | 31.04927 | 39151 ft | 575 kts | 176° |
| 2026-05-07 21:52 | 32.15536 | 31.05801 | 39153 ft | 575 kts | 176° |
| 2026-05-07 21:53 | 32.07552 | 31.06678 | 39149 ft | 576 kts | 176° |
| 2026-05-07 21:53 | 31.99564 | 31.07550 | 39149 ft | 576 kts | 176° |
| 2026-05-07 21:54 | 31.91621 | 31.08405 | 39146 ft | 577 kts | 176° |
| 2026-05-07 21:54 | 31.83595 | 31.09265 | 39151 ft | 578 kts | 176° |
| 2026-05-07 21:55 | 31.75576 | 31.10124 | 39147 ft | 579 kts | 176° |
| 2026-05-07 21:55 | 31.67555 | 31.10984 | 39147 ft | 579 kts | 176° |
| 2026-05-07 21:56 | 31.59512 | 31.11845 | 39147 ft | 580 kts | 176° |
| 2026-05-07 21:56 | 31.51532 | 31.12738 | 39148 ft | 580 kts | 174° |
| 2026-05-07 21:57 | 31.43498 | 31.14136 | 39146 ft | 581 kts | 171° |
| 2026-05-07 21:57 | 31.35566 | 31.15728 | 39142 ft | 581 kts | 171° |
| 2026-05-07 21:58 | 31.27562 | 31.17299 | 39142 ft | 580 kts | 171° |
| 2026-05-07 21:58 | 31.19642 | 31.18795 | 39139 ft | 580 kts | 171° |
| 2026-05-07 21:59 | 31.11669 | 31.20277 | 39135 ft | 579 kts | 171° |
| 2026-05-07 21:59 | 31.03694 | 31.21755 | 39139 ft | 579 kts | 171° |
| 2026-05-07 22:00 | 30.95737 | 31.23231 | 39137 ft | 578 kts | 171° |
| 2026-05-07 22:00 | 30.87836 | 31.24697 | 39138 ft | 577 kts | 171° |
| 2026-05-07 22:01 | 30.81235 | 31.25920 | 39134 ft | 576 kts | 171° |
| 2026-05-07 22:01 | 30.73320 | 31.27384 | 39134 ft | 575 kts | 171° |
| 2026-05-07 22:02 | 30.64114 | 31.29083 | 39138 ft | 575 kts | 171° |
| 2026-05-07 22:02 | 30.57500 | 31.30301 | 39135 ft | 574 kts | 171° |
| 2026-05-07 22:03 | 30.49614 | 31.31752 | 39135 ft | 574 kts | 171° |
| 2026-05-07 22:03 | 30.41800 | 31.33188 | 39128 ft | 573 kts | 171° |
| 2026-05-07 22:04 | 30.33919 | 31.34633 | 39129 ft | 573 kts | 171° |
| 2026-05-07 22:04 | 30.26055 | 31.36088 | 39125 ft | 570 kts | 170° |
| 2026-05-07 22:05 | 30.18408 | 31.37796 | 39082 ft | 560 kts | 167° |
| 2026-05-07 22:05 | 30.10850 | 31.39878 | 39022 ft | 557 kts | 164° |
| 2026-05-07 22:06 | 30.03376 | 31.42335 | 38956 ft | 556 kts | 161° |
| 2026-05-07 22:06 | 29.96020 | 31.45157 | 38899 ft | 555 kts | 158° |
| 2026-05-07 22:07 | 29.88869 | 31.48303 | 38840 ft | 553 kts | 155° |
| 2026-05-07 22:07 | 29.81806 | 31.51823 | 38778 ft | 552 kts | 153° |
| 2026-05-07 22:08 | 29.74909 | 31.55683 | 38737 ft | 550 kts | 150° |
| 2026-05-07 22:08 | 29.68187 | 31.59876 | 38710 ft | 548 kts | 147° |
| 2026-05-07 22:09 | 29.61669 | 31.64383 | 38659 ft | 546 kts | 144° |
| 2026-05-07 22:09 | 29.55387 | 31.69178 | 38617 ft | 545 kts | 142° |
| 2026-05-07 22:10 | 29.49281 | 31.74303 | 38576 ft | 543 kts | 139° |
| 2026-05-07 22:10 | 29.43380 | 31.79742 | 38548 ft | 541 kts | 136° |
| 2026-05-07 22:11 | 29.37741 | 31.85440 | 38498 ft | 540 kts | 133° |
| 2026-05-07 22:11 | 29.32336 | 31.91419 | 38462 ft | 538 kts | 130° |
| 2026-05-07 22:12 | 29.27199 | 31.97648 | 38429 ft | 537 kts | 128° |
| 2026-05-07 22:12 | 29.22331 | 32.04122 | 38378 ft | 535 kts | 125° |
| 2026-05-07 22:13 | 29.17749 | 32.10820 | 38363 ft | 534 kts | 123° |
| 2026-05-07 22:13 | 29.13481 | 32.17687 | 38333 ft | 532 kts | 120° |
| 2026-05-07 22:14 | 29.09480 | 32.24802 | 38297 ft | 531 kts | 117° |
| 2026-05-07 22:14 | 29.05791 | 32.32095 | 38266 ft | 529 kts | 115° |
| 2026-05-07 22:15 | 29.02412 | 32.39567 | 38253 ft | 528 kts | 112° |
| 2026-05-07 22:15 | 28.99846 | 32.45905 | 38247 ft | 527 kts | 110° |
| 2026-05-07 22:16 | 28.96436 | 32.55556 | 38217 ft | 525 kts | 106° |
| 2026-05-07 22:16 | 28.94071 | 32.63443 | 38198 ft | 524 kts | 103° |
| 2026-05-07 22:17 | 28.92058 | 32.71372 | 38193 ft | 522 kts | 101° |
| 2026-05-07 22:17 | 28.89771 | 32.79266 | 38076 ft | 527 kts | 113° |
| 2026-05-07 22:18 | 28.87909 | 32.82881 | 37968 ft | 529 kts | 124° |
| 2026-05-07 22:18 | 28.82767 | 32.88861 | 37872 ft | 528 kts | 140° |
| 2026-05-07 22:18 | 28.79821 | 32.91283 | 38120 ft | 525 kts | 149° |
| 2026-05-07 22:19 | 28.76579 | 32.93161 | 38411 ft | 521 kts | 159° |
| 2026-05-07 22:19 | 28.73142 | 32.94458 | 38709 ft | 518 kts | 166° |
| 2026-05-07 22:19 | 28.69647 | 32.95435 | 38945 ft | 515 kts | 169° |
| 2026-05-07 22:20 | 28.62561 | 32.96964 | 39033 ft | 521 kts | 172° |
| 2026-05-07 22:20 | 28.55368 | 32.98406 | 39028 ft | 527 kts | 171° |
| 2026-05-07 22:21 | 28.48151 | 32.99925 | 39024 ft | 527 kts | 171° |
| 2026-05-07 22:21 | 28.40982 | 33.01481 | 39024 ft | 527 kts | 171° |
| 2026-05-07 22:22 | 28.33773 | 33.03055 | 39022 ft | 526 kts | 171° |
| 2026-05-07 22:22 | 28.26592 | 33.04618 | 39020 ft | 525 kts | 171° |
| 2026-05-07 22:23 | 28.19417 | 33.06174 | 39016 ft | 524 kts | 171° |
| 2026-05-07 22:23 | 28.12260 | 33.07723 | 39009 ft | 523 kts | 171° |
| 2026-05-07 22:24 | 28.05098 | 33.09271 | 39010 ft | 522 kts | 171° |
| 2026-05-07 22:24 | 27.98014 | 33.10800 | 39006 ft | 522 kts | 171° |
| 2026-05-07 22:25 | 27.90885 | 33.12338 | 39002 ft | 520 kts | 171° |
| 2026-05-07 22:25 | 27.83782 | 33.13867 | 38998 ft | 520 kts | 172° |
| 2026-05-07 22:26 | 27.76670 | 33.15397 | 38998 ft | 519 kts | 172° |
| 2026-05-07 22:26 | 27.69580 | 33.16921 | 38992 ft | 518 kts | 172° |
| 2026-05-07 22:27 | 27.62539 | 33.18431 | 38990 ft | 517 kts | 172° |
| 2026-05-07 22:27 | 27.56658 | 33.19691 | 38994 ft | 517 kts | 172° |
| 2026-05-07 22:28 | 27.49602 | 33.21201 | 38994 ft | 516 kts | 172° |
| 2026-05-07 22:28 | 27.42523 | 33.22713 | 38994 ft | 516 kts | 172° |
| 2026-05-07 22:29 | 27.35462 | 33.24220 | 38997 ft | 515 kts | 172° |
| 2026-05-07 22:29 | 27.28447 | 33.25716 | 38999 ft | 515 kts | 173° |
| 2026-05-07 22:30 | 27.21421 | 33.27211 | 38997 ft | 514 kts | 173° |
| 2026-05-07 22:30 | 27.14392 | 33.28705 | 39007 ft | 514 kts | 173° |
| 2026-05-07 22:31 | 27.07357 | 33.30199 | 38992 ft | 513 kts | 173° |
| 2026-05-07 22:31 | 27.00385 | 33.31678 | 38990 ft | 513 kts | 173° |
| 2026-05-07 22:32 | 26.93369 | 33.33164 | 38980 ft | 512 kts | 173° |
| 2026-05-07 22:32 | 26.86371 | 33.34645 | 38975 ft | 512 kts | 173° |
| 2026-05-07 22:33 | 26.79373 | 33.36122 | 38973 ft | 511 kts | 173° |
| 2026-05-07 22:33 | 26.72379 | 33.37597 | 38968 ft | 511 kts | 173° |
| 2026-05-07 22:34 | 26.65384 | 33.39072 | 38965 ft | 510 kts | 173° |
| 2026-05-07 22:34 | 26.58439 | 33.40533 | 38960 ft | 511 kts | 173° |
| 2026-05-07 22:35 | 26.51446 | 33.42086 | 38961 ft | 514 kts | 169° |
| 2026-05-07 22:35 | 26.44815 | 33.45244 | 38956 ft | 527 kts | 150° |
| 2026-05-07 22:36 | 26.39301 | 33.50734 | 38945 ft | 539 kts | 134° |
| 2026-05-07 22:36 | 26.34520 | 33.57013 | 38952 ft | 543 kts | 131° |
| 2026-05-07 22:37 | 26.29715 | 33.63547 | 38951 ft | 544 kts | 132° |
| 2026-05-07 22:37 | 26.24904 | 33.69999 | 38960 ft | 544 kts | 132° |
| 2026-05-07 22:38 | 26.20032 | 33.76451 | 38952 ft | 543 kts | 133° |
| 2026-05-07 22:38 | 26.15147 | 33.82887 | 38948 ft | 543 kts | 133° |
| 2026-05-07 22:39 | 26.10517 | 33.88976 | 38944 ft | 542 kts | 133° |
| 2026-05-07 22:39 | 26.05651 | 33.95368 | 38944 ft | 542 kts | 133° |
| 2026-05-07 22:40 | 26.00761 | 34.01787 | 38940 ft | 542 kts | 134° |
| 2026-05-07 22:40 | 25.95888 | 34.08173 | 38940 ft | 542 kts | 134° |
| 2026-05-07 22:41 | 25.91038 | 34.14522 | 38944 ft | 542 kts | 134° |
| 2026-05-07 22:41 | 25.86142 | 34.20925 | 38940 ft | 541 kts | 134° |
| 2026-05-07 22:42 | 25.81269 | 34.27289 | 38938 ft | 541 kts | 134° |
| 2026-05-07 22:42 | 25.76416 | 34.33617 | 38937 ft | 541 kts | 134° |
| 2026-05-07 22:43 | 25.71535 | 34.39974 | 38935 ft | 540 kts | 134° |
| 2026-05-07 22:43 | 25.66666 | 34.46305 | 38937 ft | 540 kts | 134° |
| 2026-05-07 22:44 | 25.61800 | 34.52626 | 38937 ft | 539 kts | 134° |
| 2026-05-07 22:44 | 25.56870 | 34.58859 | 38935 ft | 537 kts | 138° |
| 2026-05-07 22:45 | 25.51610 | 34.64690 | 38937 ft | 534 kts | 140° |
| 2026-05-07 22:45 | 25.46277 | 34.70389 | 38933 ft | 533 kts | 140° |
| 2026-05-07 22:46 | 25.43613 | 34.73253 | 38933 ft | 533 kts | 140° |
| 2026-05-07 22:46 | 25.35176 | 34.82424 | 38932 ft | 532 kts | 140° |
| 2026-05-07 22:47 | 25.30797 | 34.87203 | 38929 ft | 531 kts | 140° |
| 2026-05-07 22:47 | 25.24676 | 34.93875 | 38932 ft | 531 kts | 140° |
| 2026-05-07 22:48 | 25.19420 | 34.99594 | 38942 ft | 530 kts | 140° |
| 2026-05-07 22:48 | 25.15016 | 35.04379 | 38939 ft | 530 kts | 140° |
| 2026-05-07 22:49 | 25.09797 | 35.10042 | 38933 ft | 529 kts | 141° |
| 2026-05-07 22:49 | 25.04546 | 35.15735 | 38932 ft | 528 kts | 141° |
| 2026-05-07 22:50 | 24.99306 | 35.21419 | 38931 ft | 527 kts | 141° |
| 2026-05-07 22:50 | 24.94078 | 35.27084 | 38928 ft | 527 kts | 141° |
| 2026-05-07 22:51 | 24.88841 | 35.32751 | 38925 ft | 526 kts | 141° |
| 2026-05-07 22:51 | 24.83628 | 35.38384 | 38927 ft | 525 kts | 141° |
| 2026-05-07 22:52 | 24.78449 | 35.43971 | 38926 ft | 524 kts | 141° |
| 2026-05-07 22:52 | 24.73248 | 35.49576 | 38926 ft | 523 kts | 141° |
| 2026-05-07 22:53 | 24.68038 | 35.55186 | 38922 ft | 523 kts | 141° |
| 2026-05-07 22:53 | 24.62843 | 35.60771 | 38924 ft | 522 kts | 141° |
| 2026-05-07 22:54 | 24.57633 | 35.66366 | 38924 ft | 522 kts | 141° |
| 2026-05-07 22:54 | 24.52466 | 35.71908 | 38925 ft | 522 kts | 141° |
| 2026-05-07 22:55 | 24.47266 | 35.77478 | 38919 ft | 522 kts | 141° |
| 2026-05-07 22:55 | 24.42070 | 35.83038 | 38920 ft | 521 kts | 141° |
| 2026-05-07 22:56 | 24.36876 | 35.88588 | 38918 ft | 521 kts | 142° |
| 2026-05-07 22:56 | 24.31671 | 35.94144 | 38920 ft | 521 kts | 142° |
| 2026-05-07 22:57 | 24.26507 | 35.99649 | 38918 ft | 521 kts | 142° |
| 2026-05-07 22:57 | 24.21315 | 36.05175 | 38915 ft | 521 kts | 142° |
| 2026-05-07 22:58 | 24.16117 | 36.10704 | 38912 ft | 521 kts | 142° |
| 2026-05-07 22:58 | 24.10912 | 36.16235 | 38913 ft | 521 kts | 142° |
| 2026-05-07 22:59 | 24.05698 | 36.21766 | 38909 ft | 521 kts | 142° |
| 2026-05-07 22:59 | 24.00518 | 36.27254 | 38909 ft | 522 kts | 142° |
| 2026-05-07 23:00 | 23.95303 | 36.32774 | 38909 ft | 522 kts | 143° |
| 2026-05-07 23:00 | 23.90074 | 36.38304 | 38909 ft | 522 kts | 143° |
| 2026-05-07 23:01 | 23.84846 | 36.43822 | 38907 ft | 523 kts | 143° |
| 2026-05-07 23:01 | 23.79601 | 36.49354 | 38902 ft | 523 kts | 143° |
| 2026-05-07 23:02 | 23.74388 | 36.54844 | 38905 ft | 523 kts | 143° |
| 2026-05-07 23:02 | 23.69142 | 36.60365 | 38901 ft | 524 kts | 143° |
| 2026-05-07 23:03 | 23.63887 | 36.65887 | 38896 ft | 524 kts | 143° |
| 2026-05-07 23:03 | 23.58636 | 36.71399 | 38890 ft | 524 kts | 143° |
| 2026-05-07 23:04 | 23.53377 | 36.76914 | 38893 ft | 524 kts | 143° |
| 2026-05-07 23:04 | 23.48138 | 36.82400 | 38905 ft | 525 kts | 144° |
| 2026-05-07 23:05 | 23.42866 | 36.87914 | 38893 ft | 525 kts | 144° |
| 2026-05-07 23:05 | 23.37595 | 36.93421 | 38889 ft | 525 kts | 144° |
| 2026-05-07 23:06 | 23.32315 | 36.98932 | 38888 ft | 525 kts | 144° |
| 2026-05-07 23:06 | 23.27062 | 37.04408 | 38888 ft | 526 kts | 144° |
| 2026-05-07 23:07 | 23.21773 | 37.09915 | 38885 ft | 526 kts | 144° |
| 2026-05-07 23:07 | 23.16482 | 37.15418 | 38884 ft | 526 kts | 144° |
| 2026-05-07 23:08 | 23.11181 | 37.20926 | 38884 ft | 526 kts | 144° |
| 2026-05-07 23:08 | 23.05903 | 37.26401 | 38883 ft | 526 kts | 144° |
| 2026-05-07 23:09 | 23.00605 | 37.31892 | 38879 ft | 526 kts | 144° |
| 2026-05-07 23:09 | 22.95289 | 37.37395 | 38878 ft | 526 kts | 144° |
| 2026-05-07 23:10 | 22.90029 | 37.42836 | 38875 ft | 526 kts | 144° |
| 2026-05-07 23:10 | 22.84730 | 37.48311 | 38872 ft | 526 kts | 144° |
| 2026-05-07 23:11 | 22.79435 | 37.53775 | 38868 ft | 525 kts | 144° |
| 2026-05-07 23:11 | 22.74135 | 37.59240 | 38870 ft | 524 kts | 144° |
| 2026-05-07 23:12 | 22.69261 | 37.65220 | 38865 ft | 536 kts | 134° |
| 2026-05-07 23:12 | 22.64836 | 37.71769 | 38873 ft | 539 kts | 133° |
| 2026-05-07 23:13 | 22.60462 | 37.78387 | 38874 ft | 539 kts | 133° |
| 2026-05-07 23:13 | 22.56134 | 37.84962 | 38866 ft | 539 kts | 133° |
| 2026-05-07 23:14 | 22.51784 | 37.91574 | 38863 ft | 539 kts | 133° |
| 2026-05-07 23:14 | 22.47452 | 37.98151 | 38863 ft | 538 kts | 133° |
| 2026-05-07 23:15 | 22.43125 | 38.04717 | 38855 ft | 530 kts | 133° |
| 2026-05-07 23:15 | 22.40994 | 38.07950 | 38734 ft | 524 kts | 133° |
| 2026-05-07 23:15 | 22.38875 | 38.11156 | 38293 ft | 522 kts | 133° |
| 2026-05-07 23:15 | 22.36756 | 38.14356 | 37570 ft | 521 kts | 133° |
| 2026-05-07 23:16 | 22.34674 | 38.17500 | 36830 ft | 522 kts | 133° |
| 2026-05-07 23:16 | 22.32564 | 38.20691 | 36107 ft | 522 kts | 132° |
| 2026-05-07 23:16 | 22.30450 | 38.23890 | 35325 ft | 523 kts | 131° |
| 2026-05-07 23:16 | 22.28326 | 38.27102 | 34494 ft | 526 kts | 131° |
| 2026-05-07 23:17 | 22.26189 | 38.30327 | 33554 ft | 528 kts | 130° |
| 2026-05-07 23:17 | 22.24050 | 38.33553 | 32545 ft | 530 kts | 130° |
| 2026-05-07 23:17 | 22.21900 | 38.36791 | 31595 ft | 532 kts | 130° |
| 2026-05-07 23:17 | 22.19693 | 38.40007 | 30624 ft | 532 kts | 131° |
| 2026-05-07 23:18 | 22.17422 | 38.43170 | 29571 ft | 535 kts | 131° |
| 2026-05-07 23:18 | 22.15119 | 38.46353 | 28471 ft | 537 kts | 131° |
| 2026-05-07 23:18 | 22.12843 | 38.49499 | 27939 ft | 528 kts | 131° |
| 2026-05-07 23:18 | 22.10629 | 38.52571 | 27209 ft | 524 kts | 131° |
| 2026-05-07 23:19 | 22.08396 | 38.55669 | 26546 ft | 518 kts | 131° |
| 2026-05-07 23:19 | 22.06187 | 38.58731 | 25976 ft | 512 kts | 131° |
| 2026-05-07 23:19 | 22.04015 | 38.61744 | 25296 ft | 508 kts | 130° |
| 2026-05-07 23:19 | 22.01852 | 38.64754 | 24681 ft | 504 kts | 130° |
| 2026-05-07 23:20 | 21.99724 | 38.67729 | 24054 ft | 500 kts | 130° |
| 2026-05-07 23:20 | 21.97602 | 38.70696 | 23411 ft | 496 kts | 130° |
| 2026-05-07 23:20 | 21.95534 | 38.73585 | 22779 ft | 490 kts | 130° |
| 2026-05-07 23:20 | 21.93462 | 38.76481 | 22123 ft | 484 kts | 130° |
| 2026-05-07 23:21 | 21.91416 | 38.79336 | 21489 ft | 478 kts | 130° |
| 2026-05-07 23:21 | 21.89392 | 38.82160 | 20856 ft | 473 kts | 130° |
| 2026-05-07 23:21 | 21.87395 | 38.84944 | 20226 ft | 467 kts | 130° |
| 2026-05-07 23:21 | 21.86080 | 38.86776 | 19844 ft | 463 kts | 130° |
| 2026-05-07 23:22 | 21.85076 | 38.88174 | 19504 ft | 461 kts | 130° |
| 2026-05-07 23:22 | 21.83129 | 38.90886 | 18923 ft | 455 kts | 130° |
| 2026-05-07 23:22 | 21.81203 | 38.93566 | 18346 ft | 450 kts | 130° |
| 2026-05-07 23:22 | 21.79276 | 38.96192 | 17744 ft | 443 kts | 133° |
| 2026-05-07 23:23 | 21.77031 | 38.98399 | 17064 ft | 432 kts | 148° |
| 2026-05-07 23:23 | 21.74406 | 38.99863 | 16414 ft | 422 kts | 160° |
| 2026-05-07 23:23 | 21.71707 | 39.00939 | 15780 ft | 416 kts | 162° |
| 2026-05-07 23:23 | 21.68991 | 39.01975 | 15141 ft | 411 kts | 162° |
| 2026-05-07 23:24 | 21.66312 | 39.03006 | 14502 ft | 407 kts | 161° |
| 2026-05-07 23:24 | 21.63661 | 39.04028 | 13865 ft | 403 kts | 161° |
| 2026-05-07 23:24 | 21.61041 | 39.05043 | 13178 ft | 398 kts | 161° |
| 2026-05-07 23:24 | 21.58438 | 39.06056 | 12464 ft | 395 kts | 161° |
| 2026-05-07 23:25 | 21.55860 | 39.07062 | 11718 ft | 393 kts | 160° |
| 2026-05-07 23:25 | 21.53310 | 39.08059 | 11198 ft | 385 kts | 160° |
| 2026-05-07 23:25 | 21.50845 | 39.09032 | 10956 ft | 370 kts | 160° |
| 2026-05-07 23:25 | 21.48479 | 39.09975 | 10709 ft | 356 kts | 160° |
| 2026-05-07 23:26 | 21.46200 | 39.10885 | 10500 ft | 342 kts | 160° |
| 2026-05-07 23:26 | 21.44014 | 39.11758 | 10354 ft | 328 kts | 160° |
| 2026-05-07 23:26 | 21.41936 | 39.12585 | 10198 ft | 315 kts | 160° |
| 2026-05-07 23:26 | 21.39898 | 39.13394 | 10053 ft | 302 kts | 160° |
| 2026-05-07 23:27 | 21.36075 | 39.14900 | 9459 ft | 290 kts | 160° |
| 2026-05-07 23:27 | 21.34188 | 39.15642 | 9104 ft | 287 kts | 160° |
| 2026-05-07 23:27 | 21.32327 | 39.16374 | 8806 ft | 284 kts | 160° |
| 2026-05-07 23:28 | 21.30474 | 39.17103 | 8520 ft | 282 kts | 160° |
| 2026-05-07 23:28 | 21.28632 | 39.17831 | 8232 ft | 281 kts | 159° |
| 2026-05-07 23:28 | 21.26896 | 39.18731 | 7950 ft | 280 kts | 145° |
| 2026-05-07 23:28 | 21.25601 | 39.20258 | 7634 ft | 279 kts | 118° |
| 2026-05-07 23:29 | 21.25105 | 39.22257 | 7335 ft | 279 kts | 91° |
| 2026-05-07 23:29 | 21.25451 | 39.24291 | 7032 ft | 278 kts | 72° |
| 2026-05-07 23:29 | 21.26249 | 39.26177 | 6666 ft | 280 kts | 57° |
| 2026-05-07 23:29 | 21.27635 | 39.27633 | 6299 ft | 282 kts | 31° |
| 2026-05-07 23:30 | 21.29484 | 39.28281 | 5912 ft | 282 kts | 2° |
| 2026-05-07 23:30 | 21.31408 | 39.27999 | 5542 ft | 280 kts | 340° |
| 2026-05-07 23:30 | 21.33237 | 39.27284 | 5172 ft | 278 kts | 336° |
| 2026-05-07 23:30 | 21.35008 | 39.26543 | 5015 ft | 268 kts | 338° |
| 2026-05-07 23:31 | 21.36715 | 39.25896 | 4981 ft | 253 kts | 339° |
| 2026-05-07 23:31 | 21.38332 | 39.25304 | 4949 ft | 237 kts | 339° |
| 2026-05-07 23:31 | 21.39829 | 39.24752 | 4984 ft | 218 kts | 338° |
| 2026-05-07 23:31 | 21.41196 | 39.24214 | 4972 ft | 201 kts | 337° |
| 2026-05-07 23:32 | 21.42489 | 39.23697 | 4930 ft | 197 kts | 337° |
| 2026-05-07 23:32 | 21.43773 | 39.23190 | 4748 ft | 196 kts | 337° |
| 2026-05-07 23:32 | 21.45043 | 39.22687 | 4486 ft | 194 kts | 337° |
| 2026-05-07 23:32 | 21.46309 | 39.22185 | 4182 ft | 193 kts | 338° |
| 2026-05-07 23:33 | 21.47561 | 39.21689 | 3908 ft | 191 kts | 338° |
| 2026-05-07 23:33 | 21.48796 | 39.21199 | 3648 ft | 188 kts | 338° |
| 2026-05-07 23:33 | 21.49998 | 39.20723 | 3406 ft | 184 kts | 338° |
| 2026-05-07 23:33 | 21.51190 | 39.20251 | 3178 ft | 181 kts | 339° |
| 2026-05-07 23:34 | 21.52355 | 39.19788 | 2957 ft | 176 kts | 339° |
| 2026-05-07 23:34 | 21.53489 | 39.19339 | 2739 ft | 171 kts | 340° |
| 2026-05-07 23:34 | 21.54222 | 39.19051 | 2596 ft | 167 kts | 339° |
| 2026-05-07 23:34 | 21.55659 | 39.18479 | 2320 ft | 163 kts | 339° |
| 2026-05-07 23:35 | 21.56357 | 39.18203 | 2178 ft | 159 kts | 339° |
| 2026-05-07 23:35 | 21.57380 | 39.17797 | 1988 ft | 153 kts | 339° |
| 2026-05-07 23:35 | 21.58352 | 39.17411 | 1785 ft | 144 kts | 340° |
| 2026-05-07 23:35 | 21.59567 | 39.16930 | 1552 ft | 139 kts | 340° |
| 2026-05-07 23:36 | 21.60180 | 39.16688 | 1422 ft | 140 kts | 340° |
| 2026-05-07 23:36 | 21.61083 | 39.16331 | 1253 ft | 140 kts | 339° |
| 2026-05-07 23:36 | 21.62005 | 39.15964 | 1056 ft | 138 kts | 340° |
| 2026-05-07 23:36 | 21.62908 | 39.15609 | 904 ft | 139 kts | 339° |
| 2026-05-07 23:37 | 21.63803 | 39.15253 | 729 ft | 139 kts | 340° |
| 2026-05-07 23:37 | 21.64698 | 39.14899 | 550 ft | 138 kts | 339° |
| 2026-05-07 23:37 | 21.65595 | 39.14544 | 367 ft | 137 kts | 337° |
| 2026-05-07 23:37 | 21.66483 | 39.14191 | 199 ft | 136 kts | 336° |
| 2026-05-07 23:38 | 21.67361 | 39.13842 | 36 ft | 131 kts | 340° |
| 2026-05-07 23:38 | 21.68060 | 39.13568 | 34 ft | 69 kts | 339° |
| 2026-05-07 23:38 | 21.68249 | 39.13492 | 33 ft | 6 kts | 341° |
| 2026-05-07 23:38 | 21.68297 | 39.13474 | 34 ft | 8 kts | 341° |
| 2026-05-07 23:39 | 21.68360 | 39.13450 | 33 ft | 11 kts | 340° |
| 2026-05-07 23:39 | 21.68441 | 39.13424 | 33 ft | 13 kts | 348° |
| 2026-05-07 23:39 | 21.68541 | 39.13415 | 33 ft | 15 kts | 2° |
| 2026-05-07 23:39 | 21.68650 | 39.13430 | 34 ft | 16 kts | 8° |
| 2026-05-07 23:40 | 21.68760 | 39.13448 | 37 ft | 16 kts | 9° |
| 2026-05-07 23:40 | 21.68877 | 39.13451 | 37 ft | 18 kts | 349° |
| 2026-05-07 23:40 | 21.68998 | 39.13407 | 38 ft | 19 kts | 339° |
| 2026-05-07 23:40 | 21.69130 | 39.13355 | 38 ft | 21 kts | 340° |
| 2026-05-07 23:41 | 21.69271 | 39.13300 | 37 ft | 20 kts | 340° |
| 2026-05-07 23:41 | 21.69354 | 39.13299 | 38 ft | 12 kts | 40° |
| 2026-05-07 23:41 | 21.69353 | 39.13369 | 38 ft | 11 kts | 134° |
| 2026-05-07 23:41 | 21.69280 | 39.13394 | 38 ft | 12 kts | 165° |
| 2026-05-07 23:42 | 21.69188 | 39.13427 | 38 ft | 15 kts | 159° |
| 2026-05-07 23:42 | 21.69079 | 39.13471 | 38 ft | 17 kts | 159° |
| 2026-05-07 23:42 | 21.68965 | 39.13517 | 38 ft | 19 kts | 159° |
| 2026-05-07 23:42 | 21.68832 | 39.13568 | 38 ft | 22 kts | 159° |
| 2026-05-07 23:43 | 21.68683 | 39.13627 | 38 ft | 24 kts | 160° |
| 2026-05-07 23:43 | 21.68518 | 39.13692 | 38 ft | 26 kts | 160° |
| 2026-05-07 23:43 | 21.68366 | 39.13752 | 38 ft | 16 kts | 160° |
| 2026-05-07 23:43 | 21.68250 | 39.13798 | 38 ft | 19 kts | 160° |
| 2026-05-07 23:44 | 21.68130 | 39.13845 | 38 ft | 17 kts | 160° |
| 2026-05-07 23:44 | 21.68014 | 39.13891 | 38 ft | 16 kts | 160° |
| 2026-05-07 23:44 | 21.67929 | 39.13925 | 38 ft | 11 kts | 159° |
| 2026-05-07 23:44 | 21.67880 | 39.13985 | 39 ft | 12 kts | 91° |
| 2026-05-07 23:45 | 21.67909 | 39.14081 | 38 ft | 15 kts | 67° |
| 2026-05-07 23:45 | 21.67939 | 39.14181 | 38 ft | 11 kts | 70° |
| 2026-05-07 23:45 | 21.67953 | 39.14247 | 38 ft | 8 kts | 95° |
| 2026-05-07 23:45 | 21.67912 | 39.14287 | 38 ft | 10 kts | 148° |
| 2026-05-07 23:46 | 21.67847 | 39.14319 | 38 ft | 7 kts | 158° |
| 2026-05-07 23:46 | 21.67807 | 39.14347 | 38 ft | 7 kts | 132° |
| 2026-05-07 23:46 | 21.67787 | 39.14385 | 39 ft | 5 kts | 116° |
| 2026-05-07 23:46 | 21.67772 | 39.14427 | 39 ft | 4 kts | 110° |
| 2026-05-07 23:47 | 21.67770 | 39.14430 | 39 ft | 0 kts | 110° |